| Date | Time | Temp. (oF) | Dew Point (oF) | Rel. Hum. (%) | Press. (in.) | Wind Dir. | Wind Speed (mph) | Hourly Rainfall (in.) |
|
|---|---|---|---|---|---|---|---|---|---|
| 1 | 10/16 | 00:00 | 51 | 49 | 94 | 29.95 | NE | 3 | 0.00 |
| 2 | 10/15 | 23:00 | 52 | 48 | 88 | 29.99 | E | 5 | 0.00 |
| 3 | 10/15 | 22:00 | 53 | 48 | 85 | 30.00 | ENE | 4 | 0.00 |
| 4 | 10/15 | 21:00 | 53 | 48 | 84 | 30.02 | NE | 5 | 0.00 |
| 5 | 10/15 | 20:00 | 54 | 48 | 83 | 30.04 | ENE | 4 | 0.00 |
| 6 | 10/15 | 19:00 | 54 | 48 | 82 | 30.06 | SE | 3 | 0.00 |
| 7 | 10/15 | 18:00 | 55 | 48 | 79 | 30.06 | NE | 4 | 0.00 |
| 8 | 10/15 | 17:00 | 56 | 48 | 75 | 30.06 | SSE | 2 | 0.00 |
| 9 | 10/15 | 16:00 | 57 | 48 | 72 | 30.08 | E | 2 | 0.00 |
| 10 | 10/15 | 15:00 | 57 | 47 | 70 | 30.09 | SSE | 2 | 0.00 |
| 11 | 10/15 | 14:00 | 57 | 46 | 68 | 30.12 | E | 3 | 0.00 |
| 12 | 10/15 | 13:00 | 57 | 44 | 64 | 30.15 | ESE | 5 | 0.00 |
| 13 | 10/15 | 12:00 | 55 | 43 | 65 | 30.18 | ESE | 4 | 0.00 |
| 14 | 10/15 | 11:00 | 54 | 45 | 72 | 30.19 | ESE | 5 | 0.00 |
| 15 | 10/15 | 10:00 | 44 | 44 | 100 | 30.22 | SE | 1 | 0.00 |
| 16 | 10/15 | 09:00 | 38 | 37 | 100 | 30.23 | ESE | 2 | 0.00 |
| 17 | 10/15 | 08:00 | 32 | 32 | 100 | 30.25 | NW | 0 | 0.00 |
| 18 | 10/15 | 07:00 | 33 | 32 | 100 | 30.25 | NW | 0 | 0.00 |
| 19 | 10/15 | 06:00 | 33 | 32 | 100 | 30.25 | NW | 0 | 0.00 |
| 20 | 10/15 | 05:00 | 34 | 33 | 100 | 30.26 | NW | 0 | 0.00 |
| 21 | 10/15 | 04:00 | 35 | 35 | 100 | 30.25 | WNW | 0 | 0.00 |
| 22 | 10/15 | 03:00 | 36 | 36 | 100 | 30.27 | NW | 0 | 0.00 |
| 23 | 10/15 | 02:00 | 37 | 36 | 99 | 30.29 | NW | 0 | 0.00 |
| 24 | 10/15 | 01:00 | 38 | 36 | 96 | 30.29 | NNW | 0 | 0.00 |